Time;durP1;ratioP1;P1;durP2;ratioP2;P2;SDS_P1;SDS_P2;PMS_P1;PMS_P2;Temp;Humidity;BMP_temperature;BMP_pressure;BME280_temperature;BME280_humidity;BME280_pressure;Samples;Min_cycle;Max_cycle;Signal;HPM_P1;HPM_P2
2022/01/09 00:01:48;;;;;;;;;;;;;;;3.88;72.44;97232.38;4971503;28;19922;-86
2022/01/09 00:04:13;;;;;;;;;;;;;;;3.92;72.45;97231.25;4971755;28;20014;-87
2022/01/09 00:06:38;;;;;;;;;;;;;;;3.92;72.43;97230.41;4987842;28;19929;-86
2022/01/09 00:09:03;;;;;;;;;;;;;;;3.96;72.05;97231.94;4988400;28;19973;-88
2022/01/09 00:11:29;;;;;;;;;;;;;;;4.02;72.17;97215.00;4970819;28;19922;-86
2022/01/09 00:13:54;;;;;;;;;;;;;;;4.07;72.29;97212.97;4972992;28;20022;-86
2022/01/09 00:16:23;;;;;;;;;;;;;;;4.09;72.35;97205.88;4971924;28;19925;-86
2022/01/09 00:18:49;;;;;;;;;;;;;;;4.06;72.03;97208.69;4987848;28;19973;-87
2022/01/09 00:21:15;;;;;;;;;;;;;;;4.05;72.37;97207.81;4987485;28;19945;-86
2022/01/09 00:23:42;;;;;;;;;;;;;;;4.03;72.37;97201.00;4983245;28;20373;-86
2022/01/09 00:26:08;;;;;;;;;;;;;;;4.17;72.31;97208.91;4986391;28;19922;-85
2022/01/09 00:28:33;;;;;;;;;;;;;;;4.12;72.14;97196.06;4972681;28;19981;-86
2022/01/09 00:30:58;;;;;;;;;;;;;;;4.13;72.22;97207.38;4972884;28;20290;-86
2022/01/09 00:33:24;;;;;;;;;;;;;;;4.22;72.00;97204.22;4972899;28;20374;-86
2022/01/09 00:35:50;;;;;;;;;;;;;;;4.19;71.98;97220.97;4973089;28;19919;-86
2022/01/09 00:38:15;;;;;;;;;;;;;;;4.19;71.91;97207.84;4972431;28;19918;-87
2022/01/09 00:40:41;;;;;;;;;;;;;;;4.19;71.63;97215.72;4972392;28;19929;-86
2022/01/09 00:43:08;;;;;;;;;;;;;;;4.25;71.72;97216.31;4972315;28;20394;-86
2022/01/09 00:45:34;;;;;;;;;;;;;;;4.24;71.62;97223.31;4972986;28;19918;-86
2022/01/09 00:47:59;;;;;;;;;;;;;;;4.21;71.59;97231.34;4972807;28;19929;-87
2022/01/09 00:50:25;;;;;;;;;;;;;;;4.25;71.53;97222.41;4987832;28;19926;-86
2022/01/09 00:52:50;;;;;;;;;;;;;;;4.42;72.29;97224.03;4972900;28;19930;-85
2022/01/09 00:55:15;;;;;;;;;;;;;;;4.61;74.52;97228.19;4972773;28;19925;-86
2022/01/09 00:57:41;;;;;;;;;;;;;;;4.70;76.27;97230.28;4971413;28;19932;-86
2022/01/09 01:00:07;;;;;;;;;;;;;;;4.76;77.90;97226.44;4987680;28;20229;-86
2022/01/09 01:02:32;;;;;;;;;;;;;;;4.77;79.28;97218.50;4972606;28;19989;-86
2022/01/09 01:04:57;;;;;;;;;;;;;;;4.73;80.60;97230.09;4972897;28;19922;-86
2022/01/09 01:07:23;;;;;;;;;;;;;;;4.70;81.77;97225.03;4971344;28;19923;-85
2022/01/09 01:09:48;;;;;;;;;;;;;;;4.70;82.81;97235.50;4972020;28;19918;-86
2022/01/09 01:12:14;;;;;;;;;;;;;;;4.65;83.64;97242.81;4971181;28;20365;-86
2022/01/09 01:14:39;;;;;;;;;;;;;;;4.62;84.35;97240.38;4972370;28;20369;-86
2022/01/09 01:17:05;;;;;;;;;;;;;;;4.53;85.47;97244.38;4972360;28;19918;-86
2022/01/09 01:19:30;;;;;;;;;;;;;;;4.47;86.54;97248.22;4972478;28;20337;-86
2022/01/09 01:21:57;;;;;;;;;;;;;;;4.48;88.68;97255.16;4972449;28;20306;-86
2022/01/09 01:24:23;;;;;;;;;;;;;;;4.50;90.73;97255.91;4972880;28;20341;-86
2022/01/09 01:26:48;;;;;;;;;;;;;;;4.53;93.30;97273.22;4984005;28;19926;-90
2022/01/09 04:16:03;;;;;;;;;;;;;;;3.30;91.08;97783.50;5810479;23;19934;-85
2022/01/09 04:18:30;;;;;;;;;;;;;;;3.02;91.34;97794.38;4988988;28;19949;-85
2022/01/09 04:20:56;;;;;;;;;;;;;;;2.91;91.80;97792.22;4991869;28;19937;-85
2022/01/09 04:23:21;;;;;;;;;;;;;;;2.83;92.29;97805.63;4992914;28;19918;-86
2022/01/09 04:25:47;;;;;;;;;;;;;;;2.67;91.82;97807.19;4992762;28;19925;-85
2022/01/09 04:28:13;;;;;;;;;;;;;;;2.47;92.57;97824.56;5007214;28;19924;-86
2022/01/09 04:30:38;;;;;;;;;;;;;;;2.36;92.56;97826.75;4991565;28;19918;-89
2022/01/09 04:33:04;;;;;;;;;;;;;;;2.33;92.43;97822.53;4993061;28;20390;-89
2022/01/09 04:35:29;;;;;;;;;;;;;;;2.22;92.26;97829.06;4992424;28;19917;-87
2022/01/09 04:37:55;;;;;;;;;;;;;;;2.09;92.62;97839.16;4991620;28;20408;-85
2022/01/09 04:40:21;;;;;;;;;;;;;;;2.00;92.33;97850.84;4991308;28;20332;-87
2022/01/09 04:42:56;;;;;;;;;;;;;;;1.91;92.52;97851.19;4992831;28;19918;-86
2022/01/09 04:45:23;;;;;;;;;;;;;;;1.86;92.03;97853.97;4991026;28;19925;-87
2022/01/09 04:47:50;;;;;;;;;;;;;;;1.75;91.87;97864.81;4991432;28;19924;-86
2022/01/09 04:50:21;;;;;;;;;;;;;;;1.68;91.67;97859.91;5007780;28;19968;-86
2022/01/09 04:52:46;;;;;;;;;;;;;;;1.64;91.70;97867.00;4991952;28;19918;-87
2022/01/09 04:55:12;;;;;;;;;;;;;;;1.45;91.50;97879.88;4992737;28;19924;-86
2022/01/09 04:57:37;;;;;;;;;;;;;;;1.36;91.73;97885.44;4991113;28;19922;-86
2022/01/09 05:00:04;;;;;;;;;;;;;;;1.49;92.96;97889.31;4990978;28;19953;-88
2022/01/09 05:02:29;;;;;;;;;;;;;;;1.77;96.25;97906.56;4992406;28;19961;-88
2022/01/09 05:04:54;;;;;;;;;;;;;;;1.96;99.64;97904.09;4991221;28;20392;-86
2022/01/09 05:07:19;;;;;;;;;;;;;;;2.32;100.00;97904.44;5007558;28;20285;-85
2022/01/09 05:09:45;;;;;;;;;;;;;;;2.64;100.00;97907.53;4992534;28;19918;-84
2022/01/09 05:12:10;;;;;;;;;;;;;;;2.62;100.00;97919.84;4992311;28;19922;-85
2022/01/09 05:14:35;;;;;;;;;;;;;;;2.62;100.00;97922.44;4990944;28;20375;-87
2022/01/09 05:17:00;;;;;;;;;;;;;;;2.64;100.00;97932.84;4992437;28;19926;-84
2022/01/09 05:19:31;;;;;;;;;;;;;;;2.72;100.00;97938.63;4996261;28;20360;-84
2022/01/09 05:21:57;;;;;;;;;;;;;;;2.68;100.00;97937.91;4995590;28;19918;-84
2022/01/09 05:24:22;;;;;;;;;;;;;;;2.66;100.00;97955.38;4996347;28;20385;-85
2022/01/09 05:26:48;;;;;;;;;;;;;;;2.64;100.00;97957.22;4995700;28;19960;-84
2022/01/09 05:29:13;;;;;;;;;;;;;;;2.67;100.00;97961.50;4996132;28;19922;-84
2022/01/09 05:31:39;;;;;;;;;;;;;;;2.71;100.00;97976.13;4994784;28;19975;-84
2022/01/09 05:34:04;;;;;;;;;;;;;;;2.70;100.00;97971.84;4995930;28;19921;-86
2022/01/09 05:36:30;;;;;;;;;;;;;;;2.74;100.00;97989.09;4995880;28;19925;-84
2022/01/09 05:38:55;;;;;;;;;;;;;;;2.75;100.00;97985.56;4996041;28;20012;-84
2022/01/09 05:41:20;;;;;;;;;;;;;;;2.68;100.00;97999.78;4996096;28;20010;-89
2022/01/09 05:43:45;;;;;;;;;;;;;;;2.70;100.00;97996.22;4995616;28;19940;-85
2022/01/09 05:46:11;;;;;;;;;;;;;;;2.69;100.00;98004.97;4994900;28;20268;-84
2022/01/09 05:48:36;;;;;;;;;;;;;;;2.68;100.00;98000.66;4995804;28;20365;-90
2022/01/09 05:51:02;;;;;;;;;;;;;;;2.67;100.00;98004.19;4994530;28;20347;-85
2022/01/09 05:53:27;;;;;;;;;;;;;;;2.67;100.00;98012.03;4995745;28;19922;-85
2022/01/09 05:55:52;;;;;;;;;;;;;;;2.72;100.00;98015.31;4994291;28;19918;-85
2022/01/09 13:49:48;;;;;;;;;;;;;;;5.93;100.00;98396.84;5585898;23;19941;-86
2022/01/09 13:52:16;;;;;;;;;;;;;;;5.97;100.00;98398.47;4992962;28;19925;-88
2022/01/09 13:54:41;;;;;;;;;;;;;;;6.04;100.00;98406.91;4995505;28;19917;-85
2022/01/09 13:57:11;;;;;;;;;;;;;;;6.09;100.00;98395.25;4995662;28;19922;-86
2022/01/09 13:59:38;;;;;;;;;;;;;;;6.16;100.00;98399.31;4995559;28;19921;-87
2022/01/09 14:02:03;;;;;;;;;;;;;;;6.20;100.00;98404.41;4995292;28;20277;-87
2022/01/09 14:04:29;;;;;;;;;;;;;;;6.25;100.00;98403.25;4994359;28;19928;-86
2022/01/09 14:06:56;;;;;;;;;;;;;;;6.29;100.00;98404.84;4995287;28;19968;-86
2022/01/09 14:09:30;;;;;;;;;;;;;;;6.32;100.00;98399.44;4995509;28;20258;-86
2022/01/09 14:12:02;;;;;;;;;;;;;;;6.40;100.00;98408.72;4995388;28;20372;-87
2022/01/09 14:14:28;;;;;;;;;;;;;;;6.41;100.00;98408.66;5005082;28;19926;-87
2022/01/09 14:16:53;;;;;;;;;;;;;;;6.48;100.00;98414.50;4987391;28;20021;-88
2022/01/09 14:19:18;;;;;;;;;;;;;;;6.52;100.00;98418.66;4990710;28;20012;-87
2022/01/09 14:21:52;;;;;;;;;;;;;;;6.55;100.00;98410.63;4985684;28;19921;-87
2022/01/09 14:24:17;;;;;;;;;;;;;;;6.59;100.00;98416.59;4984626;28;19930;-88
2022/01/09 14:26:53;;;;;;;;;;;;;;;6.39;100.00;98414.94;4987235;28;20292;-86
2022/01/09 14:29:32;;;;;;;;;;;;;;;4.45;100.00;98425.03;4984583;28;20567;-88
2022/01/09 14:31:57;;;;;;;;;;;;;;;3.61;100.00;98413.34;4982387;28;19976;-88
2022/01/09 14:34:23;;;;;;;;;;;;;;;3.36;100.00;98424.69;4983627;28;19929;-89
2022/01/09 14:36:48;;;;;;;;;;;;;;;3.05;99.04;98424.91;4984193;28;20004;-86
2022/01/09 14:39:13;;;;;;;;;;;;;;;2.79;97.07;98426.63;4992173;28;19930;-87
2022/01/09 14:41:38;;;;;;;;;;;;;;;2.66;95.63;98438.38;4993385;28;19973;-86
2022/01/09 14:44:05;;;;;;;;;;;;;;;2.57;94.73;98442.16;4993012;28;19922;-86
2022/01/09 14:46:30;;;;;;;;;;;;;;;2.49;94.04;98436.31;4991174;28;20419;-87
2022/01/09 14:48:56;;;;;;;;;;;;;;;2.35;93.44;98442.84;4992353;28;19953;-87
2022/01/09 14:51:21;;;;;;;;;;;;;;;2.25;92.75;98444.03;4993602;28;19933;-87
2022/01/09 14:53:49;;;;;;;;;;;;;;;2.11;92.07;98454.03;4991668;28;19980;-85
2022/01/09 14:56:14;;;;;;;;;;;;;;;1.94;91.56;98451.91;4992930;28;19932;-86
2022/01/09 14:58:40;;;;;;;;;;;;;;;1.90;91.13;98451.16;4990527;28;19921;-87
2022/01/09 15:01:06;;;;;;;;;;;;;;;1.90;92.64;98459.00;4990793;28;19960;-85
2022/01/09 15:03:32;;;;;;;;;;;;;;;2.21;97.28;98460.69;4989893;28;19926;-84
2022/01/09 15:05:57;;;;;;;;;;;;;;;2.38;99.98;98461.94;4992440;28;20004;-86
2022/01/09 15:08:25;;;;;;;;;;;;;;;2.39;100.00;98464.50;4993286;28;19976;-87
2022/01/09 15:10:50;;;;;;;;;;;;;;;2.43;100.00;98460.06;4992526;28;20008;-85
2022/01/09 15:13:16;;;;;;;;;;;;;;;2.53;100.00;98462.31;4992607;28;20041;-89
2022/01/09 15:15:42;;;;;;;;;;;;;;;2.51;100.00;98463.28;4989137;28;19926;-87
2022/01/09 15:18:09;;;;;;;;;;;;;;;2.56;100.00;98471.00;5000837;28;19922;-87
2022/01/09 15:20:34;;;;;;;;;;;;;;;2.57;100.00;98472.69;4986329;28;19949;-88
2022/01/09 15:23:07;;;;;;;;;;;;;;;2.57;100.00;98478.78;4990723;28;19930;-89
2022/01/09 15:25:36;;;;;;;;;;;;;;;2.57;100.00;98478.78;4981705;28;20008;-88
2022/01/09 15:28:02;;;;;;;;;;;;;;;2.60;100.00;98477.81;5002041;28;19929;-87
2022/01/09 15:30:29;;;;;;;;;;;;;;;2.60;100.00;98490.88;4989086;28;19921;-89
2022/01/09 15:32:54;;;;;;;;;;;;;;;2.62;100.00;98484.72;4992554;28;20395;-86
2022/01/09 15:35:20;;;;;;;;;;;;;;;2.64;100.00;98488.13;4991403;28;19917;-86
2022/01/09 15:37:45;;;;;;;;;;;;;;;2.66;100.00;98488.94;4992423;28;20009;-88
2022/01/09 15:40:11;;;;;;;;;;;;;;;2.68;100.00;98489.75;4992347;28;20028;-87
2022/01/09 15:42:36;;;;;;;;;;;;;;;2.73;100.00;98484.38;4993912;28;19992;-87
2022/01/09 15:45:03;;;;;;;;;;;;;;;2.70;100.00;98492.34;4991534;28;19969;-87
2022/01/09 15:47:28;;;;;;;;;;;;;;;2.73;99.70;98487.84;4993588;28;19925;-87
2022/01/09 15:49:55;;;;;;;;;;;;;;;2.75;98.45;98489.56;4990708;28;19921;-87
2022/01/09 15:52:21;;;;;;;;;;;;;;;2.72;97.42;98488.75;4993457;28;19922;-87
2022/01/09 15:54:46;;;;;;;;;;;;;;;2.75;96.37;98487.81;4993343;28;20021;-87
2022/01/09 15:57:13;;;;;;;;;;;;;;;2.76;95.61;98484.28;4991724;28;21381;-87
2022/01/09 15:59:39;;;;;;;;;;;;;;;2.73;95.00;98498.31;4993110;28;19921;-86
2022/01/09 16:02:04;;;;;;;;;;;;;;;2.76;94.26;98499.13;4992496;28;19926;-86
2022/01/09 16:04:29;;;;;;;;;;;;;;;2.75;93.58;98494.81;4992089;28;19922;-87
2022/01/09 16:06:55;;;;;;;;;;;;;;;2.78;93.10;98502.56;4993342;28;19921;-88
2022/01/09 16:09:20;;;;;;;;;;;;;;;2.76;92.61;98509.56;4992957;28;20005;-86
2022/01/09 16:11:46;;;;;;;;;;;;;;;2.72;92.18;98498.38;4993019;28;20016;-87
2022/01/09 16:14:11;;;;;;;;;;;;;;;2.70;92.02;98510.63;4992741;28;20361;-86
2022/01/09 16:16:36;;;;;;;;;;;;;;;2.70;91.72;98515.88;4991770;28;19936;-86
2022/01/09 16:19:02;;;;;;;;;;;;;;;2.73;91.46;98524.47;4991915;28;19929;-86
2022/01/09 16:21:28;;;;;;;;;;;;;;;2.68;91.15;98525.50;4992785;28;19928;-86
2022/01/09 16:23:55;;;;;;;;;;;;;;;2.67;90.98;98524.66;4991418;28;19998;-86
2022/01/09 16:26:20;;;;;;;;;;;;;;;2.66;90.70;98536.00;4992605;28;19965;-87
2022/01/09 16:28:45;;;;;;;;;;;;;;;2.65;90.62;98536.06;4992461;28;19980;-87
2022/01/09 16:31:11;;;;;;;;;;;;;;;2.68;90.33;98539.47;4992745;28;19921;-86
2022/01/09 16:33:37;;;;;;;;;;;;;;;2.64;90.05;98542.22;4990577;28;19956;-86
2022/01/09 16:36:06;;;;;;;;;;;;;;;2.63;89.79;98537.88;4992625;28;19917;-87
2022/01/09 16:38:32;;;;;;;;;;;;;;;2.62;89.61;98539.66;4991370;28;19922;-86
2022/01/09 16:40:57;;;;;;;;;;;;;;;2.59;89.35;98539.72;4992807;28;19918;-88
2022/01/09 16:43:23;;;;;;;;;;;;;;;2.61;88.99;98539.69;4991154;28;19918;-87
2022/01/09 16:45:48;;;;;;;;;;;;;;;2.60;88.85;98540.59;4992698;28;20016;-86
2022/01/09 16:48:14;;;;;;;;;;;;;;;2.62;88.70;98550.09;4992439;28;19969;-87
2022/01/09 16:50:44;;;;;;;;;;;;;;;2.61;88.66;98553.63;4990096;28;19929;-87
2022/01/09 16:53:09;;;;;;;;;;;;;;;2.58;88.54;98547.63;4991163;28;19922;-87
2022/01/09 16:55:35;;;;;;;;;;;;;;;2.55;88.36;98559.03;4990972;28;19941;-87
2022/01/09 16:58:00;;;;;;;;;;;;;;;2.57;88.34;98561.59;4992611;28;19918;-86
2022/01/09 17:00:25;;;;;;;;;;;;;;;2.53;88.18;98573.91;4991904;28;19922;-86
2022/01/09 17:02:51;;;;;;;;;;;;;;;2.53;88.01;98566.91;4990711;28;20400;-87
2022/01/09 17:05:16;;;;;;;;;;;;;;;2.52;87.73;98564.34;4987196;28;20411;-87
2022/01/09 17:07:41;;;;;;;;;;;;;;;2.52;87.59;98577.41;4988684;28;20004;-87
2022/01/09 17:10:08;;;;;;;;;;;;;;;2.53;87.31;98581.75;4991515;28;19943;-88
2022/01/09 17:12:33;;;;;;;;;;;;;;;2.50;87.04;98581.84;4990574;28;19925;-86
2022/01/09 17:14:58;;;;;;;;;;;;;;;2.47;86.99;98587.16;4994560;28;19926;-86
2022/01/09 17:17:24;;;;;;;;;;;;;;;2.47;86.77;98592.38;4995451;28;19921;-86
2022/01/09 17:19:53;;;;;;;;;;;;;;;2.50;86.63;98587.06;4994517;28;19918;-86
2022/01/09 17:22:18;;;;;;;;;;;;;;;2.49;86.44;98586.22;4991500;28;20218;-86
2022/01/09 17:24:44;;;;;;;;;;;;;;;2.45;86.31;98595.06;4995371;28;20056;-86
2022/01/09 17:27:09;;;;;;;;;;;;;;;2.48;86.19;98594.13;4994781;28;19928;-85
2022/01/09 17:29:35;;;;;;;;;;;;;;;2.46;85.91;98606.38;4995478;28;20017;-86
2022/01/09 17:32:01;;;;;;;;;;;;;;;2.43;85.77;98615.16;4993622;28;19918;-86
2022/01/09 17:34:26;;;;;;;;;;;;;;;2.46;85.66;98612.47;4988964;28;20012;-86
2022/01/09 17:36:51;;;;;;;;;;;;;;;2.42;85.49;98615.22;4990863;28;20514;-86
2022/01/09 17:39:17;;;;;;;;;;;;;;;2.42;85.51;98623.06;4993158;28;20411;-85
2022/01/09 17:41:43;;;;;;;;;;;;;;;2.42;85.36;98621.28;4995261;28;20344;-86
2022/01/09 17:44:10;;;;;;;;;;;;;;;2.42;85.38;98625.66;4995099;28;19945;-86
2022/01/09 17:46:36;;;;;;;;;;;;;;;2.42;85.27;98628.28;4995046;28;19972;-86
2022/01/09 17:49:01;;;;;;;;;;;;;;;2.42;85.00;98626.50;4993952;28;19925;-86
2022/01/09 17:51:28;;;;;;;;;;;;;;;2.42;84.76;98630.91;4994696;28;19932;-89
2022/01/09 17:53:53;;;;;;;;;;;;;;;2.41;84.80;98639.63;4993188;28;20355;-86
2022/01/09 17:56:20;;;;;;;;;;;;;;;2.40;84.69;98643.16;4994672;28;19918;-87
2022/01/09 17:58:45;;;;;;;;;;;;;;;2.39;84.46;98649.28;4993981;28;19918;-85
2022/01/09 18:01:11;;;;;;;;;;;;;;;2.38;84.45;98642.31;4993449;28;20136;-85
2022/01/09 18:03:36;;;;;;;;;;;;;;;2.40;84.19;98649.25;4994124;28;19922;-85
2022/01/09 18:06:02;;;;;;;;;;;;;;;2.40;83.97;98658.84;4993932;28;19917;-86
2022/01/09 18:08:27;;;;;;;;;;;;;;;2.38;83.92;98665.84;4993234;28;19933;-85
2022/01/09 18:10:52;;;;;;;;;;;;;;;2.34;83.71;98670.31;4992135;28;20292;-86
2022/01/09 18:13:18;;;;;;;;;;;;;;;2.36;83.47;98672.00;4992715;28;19930;-85
2022/01/09 18:15:43;;;;;;;;;;;;;;;2.33;83.40;98679.94;4993687;28;19926;-87
2022/01/09 18:18:08;;;;;;;;;;;;;;;2.34;83.31;98688.63;4993162;28;19973;-86
2022/01/09 18:20:34;;;;;;;;;;;;;;;2.31;83.24;98679.13;4992492;28;20261;-85
2022/01/09 18:22:59;;;;;;;;;;;;;;;2.33;83.05;98685.16;4994221;28;19922;-84
2022/01/09 18:25:26;;;;;;;;;;;;;;;2.34;83.02;98688.63;4992195;28;20289;-85
2022/01/09 18:27:52;;;;;;;;;;;;;;;2.32;82.75;98687.81;4994463;28;20353;-85
2022/01/09 18:30:17;;;;;;;;;;;;;;;2.32;82.56;98688.66;4990262;28;19968;-84
2022/01/09 18:32:43;;;;;;;;;;;;;;;2.32;82.57;98693.88;4990385;28;20064;-84
2022/01/09 18:35:08;;;;;;;;;;;;;;;2.30;82.35;98705.31;5007352;28;19922;-86
2022/01/09 18:37:33;;;;;;;;;;;;;;;2.33;82.20;98708.69;4994049;28;19957;-87
2022/01/09 18:39:59;;;;;;;;;;;;;;;2.31;82.12;98710.50;4994036;28;19918;-86
2022/01/09 18:42:24;;;;;;;;;;;;;;;2.34;82.12;98712.16;4994098;28;20258;-85
2022/01/09 18:44:50;;;;;;;;;;;;;;;2.34;82.07;98718.22;4992582;28;20341;-86
2022/01/09 18:47:15;;;;;;;;;;;;;;;2.35;81.80;98721.72;4992039;28;20270;-85
2022/01/09 18:49:40;;;;;;;;;;;;;;;2.31;81.56;98723.56;4991200;28;19921;-86
2022/01/09 18:52:06;;;;;;;;;;;;;;;2.33;81.45;98729.59;4992650;28;20016;-85
2022/01/09 18:54:32;;;;;;;;;;;;;;;2.29;81.44;98730.56;4990962;28;21644;-87
2022/01/09 18:57:02;;;;;;;;;;;;;;;2.31;81.10;98734.03;4987783;28;20265;-86
2022/01/09 18:59:31;;;;;;;;;;;;;;;2.28;80.99;98728.88;4991068;28;20292;-87
2022/01/09 19:01:57;;;;;;;;;;;;;;;2.30;80.92;98734.91;4992090;28;20019;-86
2022/01/09 19:04:22;;;;;;;;;;;;;;;2.30;80.83;98728.84;4991848;28;19988;-86
2022/01/09 19:06:47;;;;;;;;;;;;;;;2.33;80.61;98742.66;4993700;28;20389;-87
2022/01/09 19:09:13;;;;;;;;;;;;;;;2.32;80.62;98743.56;4993581;28;19914;-87
2022/01/09 19:11:39;;;;;;;;;;;;;;;2.31;80.41;98739.25;4993351;28;19922;-86
2022/01/09 19:14:04;;;;;;;;;;;;;;;2.32;80.37;98756.63;4993361;28;20381;-86
2022/01/09 19:16:30;;;;;;;;;;;;;;;2.32;80.30;98755.78;4992056;28;19969;-85
2022/01/09 19:18:56;;;;;;;;;;;;;;;2.32;80.13;98754.03;4991865;28;19917;-84
2022/01/09 19:21:21;;;;;;;;;;;;;;;2.32;80.01;98756.63;4993208;28;19924;-87
2022/01/09 19:23:46;;;;;;;;;;;;;;;2.30;80.09;98752.34;4992209;28;20388;-87
2022/01/09 19:26:11;;;;;;;;;;;;;;;2.33;79.97;98760.97;4993249;28;19918;-86
2022/01/09 19:28:37;;;;;;;;;;;;;;;2.35;79.77;98764.41;4991764;28;20016;-85
2022/01/09 19:31:03;;;;;;;;;;;;;;;2.35;79.64;98761.78;4993170;28;19918;-86
2022/01/09 19:33:29;;;;;;;;;;;;;;;2.33;79.48;98766.19;4992983;28;19921;-86
2022/01/09 19:35:54;;;;;;;;;;;;;;;2.34;79.45;98765.28;4991543;28;19976;-87
2022/01/09 19:38:20;;;;;;;;;;;;;;;2.35;79.30;98767.00;5007935;28;20439;-85
2022/01/09 19:40:45;;;;;;;;;;;;;;;2.33;79.13;98770.56;4992930;28;19922;-85
2022/01/09 19:43:16;;;;;;;;;;;;;;;2.31;79.03;98770.63;4993064;28;19922;-87
2022/01/09 19:45:41;;;;;;;;;;;;;;;2.32;78.88;98774.94;4991029;28;20472;-87
2022/01/09 19:48:06;;;;;;;;;;;;;;;2.36;79.02;98773.97;4992706;28;19965;-87
2022/01/09 19:50:33;;;;;;;;;;;;;;;2.33;78.95;98774.03;4989938;28;19987;-87
2022/01/09 19:52:58;;;;;;;;;;;;;;;2.35;78.71;98769.63;4992524;28;19964;-86
2022/01/09 19:55:24;;;;;;;;;;;;;;;2.38;78.65;98778.28;4991302;28;19922;-86
2022/01/09 19:57:51;;;;;;;;;;;;;;;2.35;78.59;98781.84;4991443;28;19918;-87
2022/01/09 20:00:17;;;;;;;;;;;;;;;2.31;78.26;98796.75;4991061;28;19924;-86
2022/01/09 20:02:43;;;;;;;;;;;;;;;2.35;77.96;98800.16;4992586;28;19921;-87
2022/01/09 20:05:09;;;;;;;;;;;;;;;2.34;77.97;98808.88;5006260;28;19999;-87
2022/01/09 20:07:34;;;;;;;;;;;;;;;2.33;78.00;98802.81;4992482;28;19918;-86
2022/01/09 20:10:00;;;;;;;;;;;;;;;2.31;77.89;98822.03;4991023;28;20373;-88
2022/01/09 20:12:25;;;;;;;;;;;;;;;2.34;77.92;98806.25;4991091;28;19913;-86
2022/01/09 20:14:51;;;;;;;;;;;;;;;2.31;77.74;98807.22;4992335;28;19929;-87
2022/01/09 20:17:16;;;;;;;;;;;;;;;2.33;77.73;98815.00;4992305;28;19918;-87
2022/01/09 20:19:41;;;;;;;;;;;;;;;2.33;77.56;98815.00;4990982;28;19918;-86
2022/01/09 20:22:07;;;;;;;;;;;;;;;2.37;77.56;98816.66;4992306;28;19922;-85
2022/01/09 20:24:34;;;;;;;;;;;;;;;2.34;77.51;98822.81;4990860;28;19921;-86
2022/01/09 20:27:03;;;;;;;;;;;;;;;2.33;77.35;98826.34;4990779;28;19917;-87
2022/01/09 20:29:31;;;;;;;;;;;;;;;2.30;77.29;98826.41;4990782;28;19922;-86
2022/01/09 20:31:57;;;;;;;;;;;;;;;2.35;77.32;98831.53;4992081;28;19965;-86
2022/01/09 20:34:24;;;;;;;;;;;;;;;2.36;76.89;98833.22;4986759;28;19922;-87
2022/01/09 20:36:51;;;;;;;;;;;;;;;2.35;77.00;98828.91;4989827;28;20397;-87
2022/01/09 20:39:17;;;;;;;;;;;;;;;2.36;76.96;98834.09;4991439;28;19921;-85
2022/01/09 20:41:42;;;;;;;;;;;;;;;2.39;76.97;98834.91;4991781;28;19917;-85
2022/01/09 20:44:08;;;;;;;;;;;;;;;2.40;76.93;98840.09;4990749;28;19924;-85
2022/01/09 20:46:33;;;;;;;;;;;;;;;2.41;76.81;98843.56;4991875;28;19965;-86
2022/01/09 20:48:58;;;;;;;;;;;;;;;2.42;76.61;98847.91;4990043;28;20407;-86
2022/01/09 20:51:23;;;;;;;;;;;;;;;2.43;76.74;98845.25;4991753;28;20300;-86
2022/01/09 20:53:49;;;;;;;;;;;;;;;2.41;76.64;98844.44;4991640;28;19975;-86
2022/01/09 20:56:14;;;;;;;;;;;;;;;2.44;76.59;98846.13;4991727;28;19969;-87
2022/01/09 20:58:40;;;;;;;;;;;;;;;2.46;76.59;98854.81;4988636;28;19925;-86
2022/01/09 21:01:05;;;;;;;;;;;;;;;2.47;76.43;98857.38;4990414;28;19918;-86
2022/01/09 21:03:30;;;;;;;;;;;;;;;2.47;76.42;98865.22;4989223;28;19964;-86
2022/01/09 21:05:56;;;;;;;;;;;;;;;2.49;76.47;98865.16;4989009;28;19929;-87
2022/01/09 21:08:21;;;;;;;;;;;;;;;2.49;76.09;98870.38;4991696;28;20382;-86
2022/01/09 21:10:47;;;;;;;;;;;;;;;2.49;76.19;98868.66;4992010;28;19921;-86
2022/01/09 21:13:13;;;;;;;;;;;;;;;2.49;76.00;98865.16;4989950;28;20072;-86
2022/01/09 21:15:38;;;;;;;;;;;;;;;2.51;75.95;98869.47;4991400;28;20362;-87
2022/01/09 21:18:05;;;;;;;;;;;;;;;2.49;75.95;98868.66;4990226;28;19918;-86
2022/01/09 21:20:38;;;;;;;;;;;;;;;2.51;75.90;98876.47;4988167;28;19925;-86
2022/01/09 21:23:03;;;;;;;;;;;;;;;2.53;75.72;98875.50;4991567;28;19940;-86
2022/01/09 21:25:29;;;;;;;;;;;;;;;2.56;75.52;98876.34;4990227;28;20368;-86
2022/01/09 21:27:56;;;;;;;;;;;;;;;2.53;75.33;98877.28;4990183;28;20013;-89
2022/01/09 21:30:21;;;;;;;;;;;;;;;2.57;75.39;98880.66;4991519;28;20280;-87
2022/01/09 21:32:46;;;;;;;;;;;;;;;2.56;75.23;98877.19;4990122;28;19925;-87
2022/01/09 21:35:11;;;;;;;;;;;;;;;2.57;75.06;98878.94;4990320;28;19918;-87
2022/01/09 21:37:37;;;;;;;;;;;;;;;2.56;75.11;98884.19;4991381;28;19925;-87
2022/01/09 21:40:02;;;;;;;;;;;;;;;2.60;75.12;98886.69;4990193;28;19969;-87
2022/01/09 21:42:27;;;;;;;;;;;;;;;2.59;74.96;98894.59;4990273;28;20417;-86
2022/01/09 21:44:55;;;;;;;;;;;;;;;2.61;74.80;98898.00;4989815;28;19928;-86
2022/01/09 21:47:21;;;;;;;;;;;;;;;2.64;74.81;98905.78;4989418;28;19964;-86
2022/01/09 21:49:46;;;;;;;;;;;;;;;2.65;74.73;98905.75;4988560;28;19953;-86
2022/01/09 21:52:11;;;;;;;;;;;;;;;2.65;74.75;98915.31;4991427;28;19926;-87
2022/01/09 21:54:37;;;;;;;;;;;;;;;2.67;74.78;98909.19;4991266;28;19918;-86
